Terminal Aerodrome Forecast
Issued by NWS Topeka, KS

Home | Current Version | Previous Version | Graphics & Text | Print | Product List | Glossary On
Versions: 1 2 3 4 5 6 7 8 9 10 11 12 13 14 15 16 17
000
FTUS43 KTOP 281700
TAFTOP
TAF
KTOP 281720Z 2818/2918 19015G22KT P6SM SCT250
     FM282300 24006KT P6SM FEW250
     FM290400 31015G23KT P6SM FEW250
     FM290800 33017G26KT P6SM BKN020=

USA.gov is the U.S. government's official web portal to all federal, state and local government web resources and services.